NCAR-RAP Real-Time Weather Data

Output produced by METARs form (23 July 2018  17:10 UTC)
found at http://weather.rap.ucar.edu/surface/
 
 
KMSO 231653Z 00000KT 10SM CLR 21/04 A3024 RMK AO2 SLP223 T02060044
KMSO 231553Z 00000KT 10SM CLR 18/04 A3025 RMK AO2 SLP229 T01830044
 
KHLN 231653Z 00000KT 10SM CLR 22/05 A3027 RMK AO2 SLP235 T02170050
KHLN 231553Z 00000KT 10SM CLR 20/04 A3028 RMK AO2 SLP242 T02000044
 
KLWT 231654Z AUTO 11012KT 10SM CLR 23/04 A3029 RMK AO2 SLP227 T02330044
KLWT 231554Z AUTO 09010KT 10SM CLR 22/06 A3030 RMK AO2 SLP228 T02170056
 
KBTM 231653Z AUTO 00000KT 10SM CLR 22/02 A3034 RMK AO2 SLP217 T02220022
KBTM 231553Z AUTO 00000KT 10SM CLR 18/02 A3035 RMK AO2 SLP221 T01830022
 
 
KBZN 231656Z 32004KT 10SM CLR 21/05 A3031 RMK AO2 SLP230 T02110050
KBZN 231556Z 01005KT 10SM CLR 19/08 A3032 RMK AO2 SLP233 T01890083
 
KLVM 231653Z AUTO VRB04KT 10SM CLR 21/07 A3032 RMK AO2 SLP226 T02110067
KLVM 231553Z AUTO 09006KT 10SM CLR 20/07 A3032 RMK AO2 SLP231 T02000072
 
KBIL 231653Z 06006KT 10SM FEW160 23/08 A3027 RMK AO2 SLP222 T02280083
KBIL 231553Z 10003KT 10SM FEW160 20/08 A3028 RMK AO2 SLP228 T02000083
 
 
KDLN 231653Z AUTO 07003KT 10SM CLR 21/04 A3032 RMK AO2 SLP222 T02110044
KDLN 231553Z AUTO 26003KT 10SM CLR 17/04 A3034 RMK AO2 SLP228 T01720044